Iron River, Michigan
Current Conditions -  °F | °C
As of 3:35 PM on Friday 28 Nov 2014 (Local Time) from KLNL Reporting Station
Light Snow Light Snow  
Wind Chill:   Ceiling: 1800
Heat Index: 15°   Visibility: 1.5mi
Dew Point: 12°   Wind: 5mph
Humidity: 88%   Direction: 120°ESE
Pressure: 29.9"   Gusts: NA
Location:  46.09°N, 88.64°W
Report Text: KLNL 282135Z AUTO 12004KT 1 1/2SM -SN SCT011 BKN018 OVC055 M09/M11 A2990 RMK AO2 T10951112
Loading
Personal Weather Stations






























Interactive Weather Map New forecast layout! Learn more

10-Day Weather Forecast

Advertisements
Track Severe Weather on mobile